sensor_id;sensor_type;location;lat;lon;timestamp;pressure;altitude;pressure_sealevel;temperature;humidity
71126;BME280;58785;55.566;38.058;2023-03-14T00:02:25;100156.78;;;-2.07;67.25
71126;BME280;58785;55.566;38.058;2023-03-14T00:04:54;100150.50;;;-2.03;66.91
71126;BME280;58785;55.566;38.058;2023-03-14T00:07:20;100135.03;;;-2.07;67.16
71126;BME280;58785;55.566;38.058;2023-03-14T00:09:46;100122.16;;;-2.12;66.83
71126;BME280;58785;55.566;38.058;2023-03-14T00:12:12;100131.44;;;-2.05;66.79
71126;BME280;58785;55.566;38.058;2023-03-14T00:14:39;100124.44;;;-2.04;66.81
71126;BME280;58785;55.566;38.058;2023-03-14T00:17:08;100122.53;;;-2.00;67.03
71126;BME280;58785;55.566;38.058;2023-03-14T00:19:33;100117.28;;;-1.99;66.72
71126;BME280;58785;55.566;38.058;2023-03-14T00:21:59;100085.41;;;-2.07;67.04
71126;BME280;58785;55.566;38.058;2023-03-14T00:24:25;100093.53;;;-1.94;66.83
71126;BME280;58785;55.566;38.058;2023-03-14T00:26:50;100093.34;;;-1.90;66.58
71126;BME280;58785;55.566;38.058;2023-03-14T00:29:16;100100.13;;;-1.86;66.50
71126;BME280;58785;55.566;38.058;2023-03-14T00:31:42;100087.81;;;-1.84;66.76
71126;BME280;58785;55.566;38.058;2023-03-14T00:34:07;100090.28;;;-1.81;66.35
71126;BME280;58785;55.566;38.058;2023-03-14T00:36:33;100083.25;;;-1.79;66.63
71126;BME280;58785;55.566;38.058;2023-03-14T00:38:58;100076.25;;;-1.78;66.57
71126;BME280;58785;55.566;38.058;2023-03-14T00:41:24;100072.78;;;-1.79;66.13
71126;BME280;58785;55.566;38.058;2023-03-14T00:43:50;100054.69;;;-1.83;66.37
71126;BME280;58785;55.566;38.058;2023-03-14T00:46:16;100061.13;;;-1.71;66.00
71126;BME280;58785;55.566;38.058;2023-03-14T00:48:44;100053.16;;;-1.68;66.22
71126;BME280;58785;55.566;38.058;2023-03-14T00:51:10;100035.97;;;-1.74;66.10
71126;BME280;58785;55.566;38.058;2023-03-14T00:53:39;100062.38;;;-1.61;66.09
71126;BME280;58785;55.566;38.058;2023-03-14T00:56:08;100060.56;;;-1.59;65.89
71126;BME280;58785;55.566;38.058;2023-03-14T00:58:35;100054.19;;;-1.54;66.32
71126;BME280;58785;55.566;38.058;2023-03-14T01:01:27;100066.13;;;-1.48;66.42
71126;BME280;58785;55.566;38.058;2023-03-14T01:03:54;100052.91;;;-1.45;66.82
71126;BME280;58785;55.566;38.058;2023-03-14T01:06:25;100068.31;;;-1.39;66.24
71126;BME280;58785;55.566;38.058;2023-03-14T01:08:52;100069.78;;;-1.33;66.27
71126;BME280;58785;55.566;38.058;2023-03-14T01:11:24;100063.50;;;-1.29;66.50
71126;BME280;58785;55.566;38.058;2023-03-14T01:13:50;100043.50;;;-1.30;66.50
71126;BME280;58785;55.566;38.058;2023-03-14T01:16:17;100030.41;;;-1.30;66.38
71126;BME280;58785;55.566;38.058;2023-03-14T01:18:44;100038.63;;;-1.21;66.42
71126;BME280;58785;55.566;38.058;2023-03-14T01:21:19;100035.25;;;-1.23;66.76
71126;BME280;58785;55.566;38.058;2023-03-14T01:23:45;100041.47;;;-1.25;66.86
71126;BME280;58785;55.566;38.058;2023-03-14T01:26:12;100036.25;;;-1.25;67.01
71126;BME280;58785;55.566;38.058;2023-03-14T01:28:39;100037.78;;;-1.21;67.06
71126;BME280;58785;55.566;38.058;2023-03-14T01:31:07;100044.50;;;-1.16;67.09
71126;BME280;58785;55.566;38.058;2023-03-14T01:33:33;100033.78;;;-1.11;67.12
71126;BME280;58785;55.566;38.058;2023-03-14T01:35:59;100031.34;;;-1.14;67.84
71126;BME280;58785;55.566;38.058;2023-03-14T01:38:28;100038.97;;;-1.09;67.81
71126;BME280;58785;55.566;38.058;2023-03-14T01:40:54;100023.97;;;-1.06;67.56
71126;BME280;58785;55.566;38.058;2023-03-14T01:43:20;100003.03;;;-1.06;67.88
71126;BME280;58785;55.566;38.058;2023-03-14T01:48:26;99981.81;;;-1.00;68.20
71126;BME280;58785;55.566;38.058;2023-03-14T01:50:54;99960.69;;;-0.97;68.42
71126;BME280;58785;55.566;38.058;2023-03-14T01:53:20;99969.56;;;-0.99;69.23
71126;BME280;58785;55.566;38.058;2023-03-14T01:55:48;99966.94;;;-0.99;69.26
71126;BME280;58785;55.566;38.058;2023-03-14T01:58:15;99978.19;;;-0.97;69.66
71126;BME280;58785;55.566;38.058;2023-03-14T02:00:43;99973.94;;;-1.00;69.88
71126;BME280;58785;55.566;38.058;2023-03-14T02:03:12;99954.84;;;-1.02;70.50
71126;BME280;58785;55.566;38.058;2023-03-14T02:05:42;99952.59;;;-0.92;70.34
71126;BME280;58785;55.566;38.058;2023-03-14T02:08:11;99940.31;;;-0.90;70.37
71126;BME280;58785;55.566;38.058;2023-03-14T02:10:42;99934.81;;;-0.85;70.55
71126;BME280;58785;55.566;38.058;2023-03-14T02:13:10;99946.06;;;-0.83;70.43
71126;BME280;58785;55.566;38.058;2023-03-14T02:15:36;99945.22;;;-0.84;70.86
71126;BME280;58785;55.566;38.058;2023-03-14T02:18:04;99939.88;;;-0.82;71.10
71126;BME280;58785;55.566;38.058;2023-03-14T02:20:53;99930.03;;;-0.77;71.53
71126;BME280;58785;55.566;38.058;2023-03-14T02:23:31;99918.09;;;-0.83;72.14
71126;BME280;58785;55.566;38.058;2023-03-14T02:26:05;99915.41;;;-0.81;72.17
71126;BME280;58785;55.566;38.058;2023-03-14T02:28:32;99925.47;;;-0.74;72.42
71126;BME280;58785;55.566;38.058;2023-03-14T02:30:57;99908.75;;;-0.71;73.11
71126;BME280;58785;55.566;38.058;2023-03-14T02:33:26;99909.53;;;-0.69;73.34
71126;BME280;58785;55.566;38.058;2023-03-14T02:38:28;99888.44;;;-0.66;73.15
71126;BME280;58785;55.566;38.058;2023-03-14T02:40:57;99902.28;;;-0.64;73.19
71126;BME280;58785;55.566;38.058;2023-03-14T02:43:23;99909.06;;;-0.60;73.37
71126;BME280;58785;55.566;38.058;2023-03-14T02:45:50;99882.00;;;-0.61;73.46
71126;BME280;58785;55.566;38.058;2023-03-14T02:48:17;99888.44;;;-0.50;73.38
71126;BME280;58785;55.566;38.058;2023-03-14T02:50:46;99865.66;;;-0.48;74.18
71126;BME280;58785;55.566;38.058;2023-03-14T02:53:14;99847.88;;;-0.43;74.37
71126;BME280;58785;55.566;38.058;2023-03-14T02:55:45;99829.31;;;-0.39;74.01
71126;BME280;58785;55.566;38.058;2023-03-14T02:58:10;99823.16;;;-0.38;74.44
71126;BME280;58785;55.566;38.058;2023-03-14T03:00:36;99829.81;;;-0.32;74.25
71126;BME280;58785;55.566;38.058;2023-03-14T03:03:02;99826.19;;;-0.30;74.90
71126;BME280;58785;55.566;38.058;2023-03-14T03:05:27;99829.56;;;-0.27;75.78
71126;BME280;58785;55.566;38.058;2023-03-14T03:07:53;99824.31;;;-0.27;75.48
71126;BME280;58785;55.566;38.058;2023-03-14T03:10:19;99813.66;;;-0.24;75.66
71126;BME280;58785;55.566;38.058;2023-03-14T03:12:45;99817.53;;;-0.16;75.39
71126;BME280;58785;55.566;38.058;2023-03-14T03:15:11;99827.09;;;-0.15;75.54
71126;BME280;58785;55.566;38.058;2023-03-14T03:17:36;99814.59;;;-0.10;75.45
71126;BME280;58785;55.566;38.058;2023-03-14T03:20:02;99813.66;;;-0.09;76.00
71126;BME280;58785;55.566;38.058;2023-03-14T03:22:30;99820.28;;;-0.03;75.39
71126;BME280;58785;55.566;38.058;2023-03-14T03:24:55;99815.75;;;0.01;75.51
71126;BME280;58785;55.566;38.058;2023-03-14T03:27:21;99803.53;;;-0.01;75.69
71126;BME280;58785;55.566;38.058;2023-03-14T03:29:47;99797.22;;;0.04;75.92
71126;BME280;58785;55.566;38.058;2023-03-14T03:32:12;99797.22;;;0.04;75.90
71126;BME280;58785;55.566;38.058;2023-03-14T03:34:38;99810.31;;;0.04;75.90
71126;BME280;58785;55.566;38.058;2023-03-14T03:37:04;99788.69;;;0.00;76.16
71126;BME280;58785;55.566;38.058;2023-03-14T03:39:29;99792.63;;;0.07;75.96
71126;BME280;58785;55.566;38.058;2023-03-14T03:41:55;99779.69;;;0.04;76.13
71126;BME280;58785;55.566;38.058;2023-03-14T03:44:21;99782.88;;;0.09;76.03
71126;BME280;58785;55.566;38.058;2023-03-14T03:46:46;99766.06;;;0.13;76.28
71126;BME280;58785;55.566;38.058;2023-03-14T03:49:12;99772.91;;;0.16;76.21
71126;BME280;58785;55.566;38.058;2023-03-14T03:51:39;99758.84;;;0.17;76.16
71126;BME280;58785;55.566;38.058;2023-03-14T03:54:05;99758.59;;;0.21;76.58
71126;BME280;58785;55.566;38.058;2023-03-14T03:56:30;99748.84;;;0.23;76.63
71126;BME280;58785;55.566;38.058;2023-03-14T03:58:57;99747.72;;;0.27;76.36
71126;BME280;58785;55.566;38.058;2023-03-14T04:01:22;99747.38;;;0.34;76.41
71126;BME280;58785;55.566;38.058;2023-03-14T04:03:48;99741.09;;;0.36;76.40
71126;BME280;58785;55.566;38.058;2023-03-14T04:06:14;99737.28;;;0.42;76.04
71126;BME280;58785;55.566;38.058;2023-03-14T04:08:40;99735.94;;;0.49;76.49
71126;BME280;58785;55.566;38.058;2023-03-14T04:11:06;99734.94;;;0.51;76.08
71126;BME280;58785;55.566;38.058;2023-03-14T04:13:32;99744.38;;;0.54;76.39
71126;BME280;58785;55.566;38.058;2023-03-14T04:15:57;99730.34;;;0.55;76.78
71126;BME280;58785;55.566;38.058;2023-03-14T04:18:23;99733.06;;;0.53;76.99
71126;BME280;58785;55.566;38.058;2023-03-14T04:20:54;99735.97;;;0.63;76.69
71126;BME280;58785;55.566;38.058;2023-03-14T04:23:20;99742.53;;;0.70;76.92
71126;BME280;58785;55.566;38.058;2023-03-14T04:25:50;99732.03;;;0.70;76.64
71126;BME280;58785;55.566;38.058;2023-03-14T04:28:16;99716.63;;;0.78;76.77
71126;BME280;58785;55.566;38.058;2023-03-14T04:30:42;99714.47;;;0.85;76.39
71126;BME280;58785;55.566;38.058;2023-03-14T04:33:08;99726.72;;;0.99;76.83
71126;BME280;58785;55.566;38.058;2023-03-14T04:35:34;99723.53;;;1.08;76.48
71126;BME280;58785;55.566;38.058;2023-03-14T04:37:59;99726.50;;;1.16;76.29
71126;BME280;58785;55.566;38.058;2023-03-14T04:40:25;99709.06;;;1.15;75.88
71126;BME280;58785;55.566;38.058;2023-03-14T04:42:51;99709.34;;;1.25;76.26
71126;BME280;58785;55.566;38.058;2023-03-14T04:45:17;99703.88;;;1.28;76.13
71126;BME280;58785;55.566;38.058;2023-03-14T04:47:42;99690.63;;;1.29;76.19
71126;BME280;58785;55.566;38.058;2023-03-14T04:50:09;99685.09;;;1.34;76.42
71126;BME280;58785;55.566;38.058;2023-03-14T04:52:35;99687.31;;;1.40;76.10
71126;BME280;58785;55.566;38.058;2023-03-14T04:55:01;99661.72;;;1.43;75.81
71126;BME280;58785;55.566;38.058;2023-03-14T04:57:28;99679.50;;;1.53;75.76
71126;BME280;58785;55.566;38.058;2023-03-14T04:59:54;99687.06;;;1.57;75.75
71126;BME280;58785;55.566;38.058;2023-03-14T05:02:20;99689.19;;;1.65;75.95
71126;BME280;58785;55.566;38.058;2023-03-14T05:04:45;99678.69;;;1.65;75.69
71126;BME280;58785;55.566;38.058;2023-03-14T05:07:11;99686.91;;;1.73;75.41
71126;BME280;58785;55.566;38.058;2023-03-14T05:09:36;99673.34;;;1.79;75.58
71126;BME280;58785;55.566;38.058;2023-03-14T05:12:02;99669.13;;;1.89;75.13
71126;BME280;58785;55.566;38.058;2023-03-14T05:14:28;99669.69;;;1.94;75.30
71126;BME280;58785;55.566;38.058;2023-03-14T05:16:53;99657.06;;;1.99;74.88
71126;BME280;58785;55.566;38.058;2023-03-14T05:19:19;99663.25;;;1.98;75.34
71126;BME280;58785;55.566;38.058;2023-03-14T05:21:45;99659.81;;;2.11;75.14
71126;BME280;58785;55.566;38.058;2023-03-14T05:24:10;99656.88;;;2.15;74.80
71126;BME280;58785;55.566;38.058;2023-03-14T05:26:36;99643.91;;;2.25;74.76
71126;BME280;58785;55.566;38.058;2023-03-14T05:29:02;99635.81;;;2.28;74.65
71126;BME280;58785;55.566;38.058;2023-03-14T05:31:27;99645.81;;;2.36;74.38
71126;BME280;58785;55.566;38.058;2023-03-14T05:33:53;99639.38;;;2.40;74.16
71126;BME280;58785;55.566;38.058;2023-03-14T05:36:18;99631.47;;;2.52;74.17
71126;BME280;58785;55.566;38.058;2023-03-14T05:38:44;99634.19;;;2.64;73.57
71126;BME280;58785;55.566;38.058;2023-03-14T05:41:10;99617.84;;;2.58;73.70
71126;BME280;58785;55.566;38.058;2023-03-14T05:43:35;99628.81;;;2.65;73.80
71126;BME280;58785;55.566;38.058;2023-03-14T05:49:41;99623.78;;;2.86;72.79
71126;BME280;58785;55.566;38.058;2023-03-14T05:52:07;99608.22;;;2.83;73.25
71126;BME280;58785;55.566;38.058;2023-03-14T05:54:33;99599.25;;;2.85;73.12
71126;BME280;58785;55.566;38.058;2023-03-14T05:56:58;99606.31;;;2.85;72.83
71126;BME280;58785;55.566;38.058;2023-03-14T05:59:24;99616.31;;;2.93;72.47
71126;BME280;58785;55.566;38.058;2023-03-14T06:01:50;99615.00;;;2.98;72.40
71126;BME280;58785;55.566;38.058;2023-03-14T06:04:15;99632.31;;;3.13;72.28
71126;BME280;58785;55.566;38.058;2023-03-14T06:06:41;99639.75;;;3.20;71.41
71126;BME280;58785;55.566;38.058;2023-03-14T06:09:07;99646.28;;;3.27;71.29
71126;BME280;58785;55.566;38.058;2023-03-14T06:11:32;99652.94;;;3.43;70.96
71126;BME280;58785;55.566;38.058;2023-03-14T06:13:58;99655.50;;;3.56;71.25
71126;BME280;58785;55.566;38.058;2023-03-14T06:16:24;99641.75;;;3.64;70.44
71126;BME280;58785;55.566;38.058;2023-03-14T06:18:49;99641.44;;;3.80;70.05
71126;BME280;58785;55.566;38.058;2023-03-14T06:21:15;99649.47;;;3.89;69.89
71126;BME280;58785;55.566;38.058;2023-03-14T06:23:41;99649.16;;;3.94;69.95
71126;BME280;58785;55.566;38.058;2023-03-14T06:26:07;99659.22;;;4.00;69.89
71126;BME280;58785;55.566;38.058;2023-03-14T06:28:32;99645.44;;;4.08;69.45
71126;BME280;58785;55.566;38.058;2023-03-14T06:30:59;99636.22;;;4.13;69.29
71126;BME280;58785;55.566;38.058;2023-03-14T06:33:25;99635.16;;;4.16;69.29
71126;BME280;58785;55.566;38.058;2023-03-14T06:35:50;99635.75;;;4.19;69.38
71126;BME280;58785;55.566;38.058;2023-03-14T06:38:16;99620.53;;;4.23;69.00
71126;BME280;58785;55.566;38.058;2023-03-14T06:40:42;99619.56;;;4.24;69.21
71126;BME280;58785;55.566;38.058;2023-03-14T06:43:07;99620.78;;;4.31;69.08
71126;BME280;58785;55.566;38.058;2023-03-14T06:45:33;99605.41;;;4.36;68.97
71126;BME280;58785;55.566;38.058;2023-03-14T06:47:59;99618.00;;;4.44;68.92
71126;BME280;58785;55.566;38.058;2023-03-14T06:50:24;99616.66;;;4.49;68.51
71126;BME280;58785;55.566;38.058;2023-03-14T06:52:50;99603.59;;;4.48;68.47
71126;BME280;58785;55.566;38.058;2023-03-14T06:55:16;99609.84;;;4.47;68.17
71126;BME280;58785;55.566;38.058;2023-03-14T06:57:42;99578.75;;;4.50;68.43
71126;BME280;58785;55.566;38.058;2023-03-14T07:00:11;99587.75;;;4.48;68.09
71126;BME280;58785;55.566;38.058;2023-03-14T07:02:36;99584.50;;;4.55;68.32
71126;BME280;58785;55.566;38.058;2023-03-14T07:05:02;99591.47;;;4.56;68.33
71126;BME280;58785;55.566;38.058;2023-03-14T07:07:29;99587.25;;;4.65;67.79
71126;BME280;58785;55.566;38.058;2023-03-14T07:09:54;99584.25;;;4.70;67.63
71126;BME280;58785;55.566;38.058;2023-03-14T07:12:20;99594.19;;;4.77;67.28
71126;BME280;58785;55.566;38.058;2023-03-14T07:14:46;99584.81;;;4.84;67.02
71126;BME280;58785;55.566;38.058;2023-03-14T07:17:11;99583.72;;;4.87;66.42
71126;BME280;58785;55.566;38.058;2023-03-14T07:19:37;99587.88;;;5.01;66.29
71126;BME280;58785;55.566;38.058;2023-03-14T07:22:04;99580.88;;;5.22;66.27
71126;BME280;58785;55.566;38.058;2023-03-14T07:24:30;99588.97;;;5.30;65.60
71126;BME280;58785;55.566;38.058;2023-03-14T07:26:55;99600.84;;;5.36;65.33
71126;BME280;58785;55.566;38.058;2023-03-14T07:29:21;99596.00;;;5.41;65.12
71126;BME280;58785;55.566;38.058;2023-03-14T07:31:47;99602.88;;;5.43;65.19
71126;BME280;58785;55.566;38.058;2023-03-14T07:34:13;99602.94;;;5.53;64.93
71126;BME280;58785;55.566;38.058;2023-03-14T07:36:38;99610.22;;;5.61;64.53
71126;BME280;58785;55.566;38.058;2023-03-14T07:39:04;99614.81;;;5.59;64.28
71126;BME280;58785;55.566;38.058;2023-03-14T07:41:30;99614.38;;;5.54;64.09
71126;BME280;58785;55.566;38.058;2023-03-14T07:43:56;99604.22;;;5.59;64.58
71126;BME280;58785;55.566;38.058;2023-03-14T07:46:22;99604.56;;;5.65;64.38
71126;BME280;58785;55.566;38.058;2023-03-14T07:48:48;99610.69;;;5.87;63.57
71126;BME280;58785;55.566;38.058;2023-03-14T07:51:13;99612.38;;;6.09;63.69
71126;BME280;58785;55.566;38.058;2023-03-14T07:53:39;99619.97;;;6.23;62.84
71126;BME280;58785;55.566;38.058;2023-03-14T07:56:05;99608.16;;;6.27;62.57
71126;BME280;58785;55.566;38.058;2023-03-14T07:58:31;99605.91;;;6.22;62.87
71126;BME280;58785;55.566;38.058;2023-03-14T08:00:58;99611.06;;;6.24;62.78
71126;BME280;58785;55.566;38.058;2023-03-14T08:03:24;99596.72;;;6.26;62.95
71126;BME280;58785;55.566;38.058;2023-03-14T08:05:50;99595.84;;;6.16;62.49
71126;BME280;58785;55.566;38.058;2023-03-14T08:08:16;99599.47;;;6.15;63.08
71126;BME280;58785;55.566;38.058;2023-03-14T08:10:43;99592.41;;;6.25;62.66
71126;BME280;58785;55.566;38.058;2023-03-14T08:13:09;99605.53;;;6.37;62.53
71126;BME280;58785;55.566;38.058;2023-03-14T08:15:35;99607.25;;;6.47;62.39
71126;BME280;58785;55.566;38.058;2023-03-14T08:18:00;99606.44;;;6.56;61.84
71126;BME280;58785;55.566;38.058;2023-03-14T08:20:29;99615.56;;;6.63;61.83
71126;BME280;58785;55.566;38.058;2023-03-14T08:22:59;99619.19;;;6.62;62.11
71126;BME280;58785;55.566;38.058;2023-03-14T08:25:26;99607.19;;;6.68;62.04
71126;BME280;58785;55.566;38.058;2023-03-14T08:27:51;99591.72;;;6.63;61.35
71126;BME280;58785;55.566;38.058;2023-03-14T08:30:18;99612.09;;;6.73;61.85
71126;BME280;58785;55.566;38.058;2023-03-14T08:32:44;99632.69;;;6.69;61.31
71126;BME280;58785;55.566;38.058;2023-03-14T08:35:11;99619.59;;;6.68;61.27
71126;BME280;58785;55.566;38.058;2023-03-14T08:37:37;99622.69;;;6.73;61.59
71126;BME280;58785;55.566;38.058;2023-03-14T08:40:04;99631.50;;;6.83;60.64
71126;BME280;58785;55.566;38.058;2023-03-14T08:42:38;99618.53;;;6.89;60.85
71126;BME280;58785;55.566;38.058;2023-03-14T08:45:06;99624.84;;;6.98;60.42
71126;BME280;58785;55.566;38.058;2023-03-14T08:47:32;99619.84;;;7.05;60.53
71126;BME280;58785;55.566;38.058;2023-03-14T08:49:57;99613.84;;;7.03;60.48
71126;BME280;58785;55.566;38.058;2023-03-14T08:52:23;99619.53;;;6.98;60.55
71126;BME280;58785;55.566;38.058;2023-03-14T08:54:49;99632.50;;;7.01;60.42
71126;BME280;58785;55.566;38.058;2023-03-14T08:57:15;99629.84;;;7.01;60.38
71126;BME280;58785;55.566;38.058;2023-03-14T08:59:41;99608.53;;;6.93;59.99
71126;BME280;58785;55.566;38.058;2023-03-14T09:02:09;99619.38;;;6.90;60.82
71126;BME280;58785;55.566;38.058;2023-03-14T09:04:36;99625.41;;;6.92;60.70
71126;BME280;58785;55.566;38.058;2023-03-14T09:07:01;99617.16;;;6.95;60.02
71126;BME280;58785;55.566;38.058;2023-03-14T09:09:28;99631.66;;;7.01;60.36
71126;BME280;58785;55.566;38.058;2023-03-14T09:11:55;99623.19;;;7.07;59.69
71126;BME280;58785;55.566;38.058;2023-03-14T09:14:21;99622.75;;;7.11;60.31
71126;BME280;58785;55.566;38.058;2023-03-14T09:16:47;99631.56;;;7.12;59.83
71126;BME280;58785;55.566;38.058;2023-03-14T09:19:12;99619.16;;;7.12;59.58
71126;BME280;58785;55.566;38.058;2023-03-14T09:21:38;99610.78;;;7.17;58.74
71126;BME280;58785;55.566;38.058;2023-03-14T09:24:04;99614.56;;;7.24;59.40
71126;BME280;58785;55.566;38.058;2023-03-14T09:26:30;99609.53;;;7.40;58.97
71126;BME280;58785;55.566;38.058;2023-03-14T09:28:56;99609.25;;;7.53;58.89
71126;BME280;58785;55.566;38.058;2023-03-14T09:31:22;99602.81;;;7.56;58.30
71126;BME280;58785;55.566;38.058;2023-03-14T09:33:48;99625.72;;;7.57;58.59
71126;BME280;58785;55.566;38.058;2023-03-14T09:36:14;99625.19;;;7.53;57.92
71126;BME280;58785;55.566;38.058;2023-03-14T09:38:39;99614.28;;;7.46;57.74
71126;BME280;58785;55.566;38.058;2023-03-14T09:41:17;99630.06;;;7.48;57.83
71126;BME280;58785;55.566;38.058;2023-03-14T09:43:45;99632.31;;;7.53;58.52
71126;BME280;58785;55.566;38.058;2023-03-14T09:46:12;99626.56;;;7.57;57.90
71126;BME280;58785;55.566;38.058;2023-03-14T09:48:39;99631.47;;;7.62;57.56
71126;BME280;58785;55.566;38.058;2023-03-14T09:51:12;99620.13;;;7.60;58.01
71126;BME280;58785;55.566;38.058;2023-03-14T09:53:41;99632.56;;;7.69;57.43
71126;BME280;58785;55.566;38.058;2023-03-14T09:56:18;99629.50;;;7.73;57.19
71126;BME280;58785;55.566;38.058;2023-03-14T09:58:48;99619.13;;;7.70;57.19
71126;BME280;58785;55.566;38.058;2023-03-14T10:01:20;99611.19;;;7.70;57.35
71126;BME280;58785;55.566;38.058;2023-03-14T10:03:47;99616.91;;;7.75;56.86
71126;BME280;58785;55.566;38.058;2023-03-14T10:06:15;99625.03;;;7.74;57.23
71126;BME280;58785;55.566;38.058;2023-03-14T10:08:44;99615.78;;;7.68;56.64
71126;BME280;58785;55.566;38.058;2023-03-14T10:11:15;99617.06;;;7.64;56.96
71126;BME280;58785;55.566;38.058;2023-03-14T10:16:32;99617.63;;;7.58;57.25
71126;BME280;58785;55.566;38.058;2023-03-14T10:19:07;99604.94;;;7.52;56.95
71126;BME280;58785;55.566;38.058;2023-03-14T10:21:40;99606.75;;;7.42;57.34
71126;BME280;58785;55.566;38.058;2023-03-14T10:24:20;99589.28;;;7.39;57.73
71126;BME280;58785;55.566;38.058;2023-03-14T10:26:52;99588.88;;;7.34;56.96
71126;BME280;58785;55.566;38.058;2023-03-14T10:29:18;99580.09;;;7.43;57.37
71126;BME280;58785;55.566;38.058;2023-03-14T10:34:16;99578.13;;;7.55;56.79
71126;BME280;58785;55.566;38.058;2023-03-14T10:36:42;99572.81;;;7.65;56.91
71126;BME280;58785;55.566;38.058;2023-03-14T10:41:54;99564.94;;;7.92;56.65
71126;BME280;58785;55.566;38.058;2023-03-14T10:44:24;99565.84;;;8.01;56.01
71126;BME280;58785;55.566;38.058;2023-03-14T10:46:59;99559.31;;;7.95;55.86
71126;BME280;58785;55.566;38.058;2023-03-14T10:49:34;99565.31;;;7.97;56.44
71126;BME280;58785;55.566;38.058;2023-03-14T10:54:38;99561.50;;;8.10;56.32
71126;BME280;58785;55.566;38.058;2023-03-14T10:57:05;99570.97;;;8.22;56.22
71126;BME280;58785;55.566;38.058;2023-03-14T10:59:36;99571.66;;;8.24;56.33
71126;BME280;58785;55.566;38.058;2023-03-14T11:02:15;99563.84;;;8.22;55.95
71126;BME280;58785;55.566;38.058;2023-03-14T11:05:04;99572.19;;;8.27;55.84
71126;BME280;58785;55.566;38.058;2023-03-14T11:07:44;99560.88;;;8.35;55.53
71126;BME280;58785;55.566;38.058;2023-03-14T11:13:04;99554.91;;;8.51;55.81
71126;BME280;58785;55.566;38.058;2023-03-14T11:23:24;99554.63;;;8.54;55.03
71126;BME280;58785;55.566;38.058;2023-03-14T11:28:41;99550.63;;;8.68;54.60
71126;BME280;58785;55.566;38.058;2023-03-14T11:33:47;99566.44;;;8.69;54.66
71126;BME280;58785;55.566;38.058;2023-03-14T11:36:23;99564.44;;;8.71;54.88
71126;BME280;58785;55.566;38.058;2023-03-14T11:38:56;99562.63;;;8.72;54.88
71126;BME280;58785;55.566;38.058;2023-03-14T11:41:36;99564.59;;;8.70;54.85
71126;BME280;58785;55.566;38.058;2023-03-14T11:44:32;99582.78;;;8.74;54.39
71126;BME280;58785;55.566;38.058;2023-03-14T11:49:34;99571.94;;;8.58;54.47
71126;BME280;58785;55.566;38.058;2023-03-14T11:52:26;99581.38;;;8.52;54.76
71126;BME280;58785;55.566;38.058;2023-03-14T11:55:19;99592.72;;;8.45;54.97
71126;BME280;58785;55.566;38.058;2023-03-14T11:57:47;99585.06;;;8.32;55.14
71126;BME280;58785;55.566;38.058;2023-03-14T12:00:20;99585.63;;;8.26;54.92
71126;BME280;58785;55.566;38.058;2023-03-14T12:05:45;99587.22;;;8.09;55.78
71126;BME280;58785;55.566;38.058;2023-03-14T12:11:00;99591.03;;;7.97;55.78
71126;BME280;58785;55.566;38.058;2023-03-14T12:13:37;99590.72;;;8.00;55.43
71126;BME280;58785;55.566;38.058;2023-03-14T12:16:06;99596.59;;;8.03;55.27
71126;BME280;58785;55.566;38.058;2023-03-14T12:18:39;99600.09;;;8.04;55.38
71126;BME280;58785;55.566;38.058;2023-03-14T12:21:09;99598.69;;;8.00;55.72
71126;BME280;58785;55.566;38.058;2023-03-14T12:23:56;99599.97;;;7.96;55.29
71126;BME280;58785;55.566;38.058;2023-03-14T12:26:27;99609.63;;;7.87;55.26
71126;BME280;58785;55.566;38.058;2023-03-14T12:29:16;99617.91;;;7.74;55.66
71126;BME280;58785;55.566;38.058;2023-03-14T12:31:45;99631.56;;;7.60;56.41
71126;BME280;58785;55.566;38.058;2023-03-14T12:39:43;99620.28;;;7.48;56.39
71126;BME280;58785;55.566;38.058;2023-03-14T12:42:40;99608.53;;;7.41;55.86
71126;BME280;58785;55.566;38.058;2023-03-14T12:45:30;99614.97;;;7.39;56.75
71126;BME280;58785;55.566;38.058;2023-03-14T12:48:22;99606.59;;;7.34;56.70
71126;BME280;58785;55.566;38.058;2023-03-14T12:51:05;99622.09;;;7.29;56.62
71126;BME280;58785;55.566;38.058;2023-03-14T13:01:35;99637.28;;;7.07;57.37
71126;BME280;58785;55.566;38.058;2023-03-14T13:04:11;99623.84;;;6.99;57.05
71126;BME280;58785;55.566;38.058;2023-03-14T13:06:54;99626.25;;;7.02;57.14
71126;BME280;58785;55.566;38.058;2023-03-14T13:11:52;99638.22;;;6.97;57.89
71126;BME280;58785;55.566;38.058;2023-03-14T13:14:18;99631.25;;;6.96;57.31
71126;BME280;58785;55.566;38.058;2023-03-14T13:16:46;99616.03;;;6.88;57.96
71126;BME280;58785;55.566;38.058;2023-03-14T13:19:21;99618.28;;;6.93;57.39
71126;BME280;58785;55.566;38.058;2023-03-14T13:21:50;99624.66;;;6.90;57.87
71126;BME280;58785;55.566;38.058;2023-03-14T13:24:22;99635.28;;;6.90;58.12
71126;BME280;58785;55.566;38.058;2023-03-14T13:26:52;99637.66;;;6.83;57.53
71126;BME280;58785;55.566;38.058;2023-03-14T13:29:24;99644.44;;;6.76;58.04
71126;BME280;58785;55.566;38.058;2023-03-14T13:31:52;99631.03;;;6.68;57.93
71126;BME280;58785;55.566;38.058;2023-03-14T13:34:19;99630.47;;;6.65;57.72
71126;BME280;58785;55.566;38.058;2023-03-14T13:36:46;99635.19;;;6.61;58.72
71126;BME280;58785;55.566;38.058;2023-03-14T13:39:18;99633.34;;;6.52;58.04
71126;BME280;58785;55.566;38.058;2023-03-14T13:41:45;99634.91;;;6.54;58.25
71126;BME280;58785;55.566;38.058;2023-03-14T13:44:25;99635.16;;;6.51;58.17
71126;BME280;58785;55.566;38.058;2023-03-14T13:46:51;99625.66;;;6.49;58.15
71126;BME280;58785;55.566;38.058;2023-03-14T13:49:22;99615.19;;;6.47;58.70
71126;BME280;58785;55.566;38.058;2023-03-14T13:51:48;99607.41;;;6.46;58.39
71126;BME280;58785;55.566;38.058;2023-03-14T13:54:16;99617.16;;;6.45;58.55
71126;BME280;58785;55.566;38.058;2023-03-14T13:56:43;99606.94;;;6.41;59.08
71126;BME280;58785;55.566;38.058;2023-03-14T13:59:26;99619.09;;;6.43;58.44
71126;BME280;58785;55.566;38.058;2023-03-14T14:01:54;99618.25;;;6.43;59.05